Time;durP1;ratioP1;P1;durP2;ratioP2;P2;SDS_P1;SDS_P2;PMS_P1;PMS_P2;Temp;Humidity;BMP_temperature;BMP_pressure;BME280_temperature;BME280_humidity;BME280_pressure;Samples;Min_cycle;Max_cycle;Signal;HPM_P1;HPM_P2
2023/03/24 00:02:22;;;;;;;15.43;7.00;;;;;;;;;;5112251;28;20039;-71
2023/03/24 00:04:51;;;;;;;15.63;6.57;;;;;;;;;;5112725;28;20446;-71
2023/03/24 00:07:18;;;;;;;20.75;7.32;;;;;;;;;;5093474;28;20136;-71
2023/03/24 00:09:44;;;;;;;18.08;6.03;;;;;;;;;;5112633;28;20418;-71
2023/03/24 00:12:17;;;;;;;14.00;6.72;;;;;;;;;;5095321;28;20040;-71
2023/03/24 00:14:45;;;;;;;;;;;11.60;99.90;;;;;;5112763;28;20127;-71
2023/03/24 00:17:12;;;;;;;16.20;6.75;;;;;;;;;;5095212;28;19987;-71
2023/03/24 00:19:39;;;;;;;17.10;6.95;;;;;;;;;;5112243;28;20071;-71
2023/03/24 00:22:05;;;;;;;19.55;8.25;;;;;;;;;;5112765;28;20050;-71
2023/03/24 00:24:32;;;;;;;15.55;6.75;;;;;;;;;;5095059;28;20100;-71
2023/03/24 00:26:59;;;;;;;13.88;6.45;;;;;;;;;;5112065;28;20135;-71
2023/03/24 00:29:26;;;;;;;16.67;7.13;;;;;;;;;;5112305;28;20498;-71
2023/03/24 00:31:52;;;;;;;15.20;6.55;;;;;;;;;;5111501;28;20088;-71
2023/03/24 00:34:22;;;;;;;13.90;6.63;;;;;;;;;;5112176;28;20046;-71
2023/03/24 00:36:49;;;;;;;13.75;7.25;;;;;;;;;;5111648;28;20039;-71
2023/03/24 00:39:16;;;;;;;14.63;7.13;;;;;;;;;;5111756;28;20092;-71
2023/03/24 00:41:44;;;;;;;14.90;6.47;;;;;;;;;;5091880;28;20070;-71
2023/03/24 00:44:16;;;;;;;20.60;6.45;;;;;;;;;;5095520;28;20039;-71
2023/03/24 00:46:44;;;;;;;17.13;7.10;;;;;;;;;;5110968;28;20039;-71
2023/03/24 00:49:11;;;;;;;12.85;6.15;;;;;;;;;;5108460;28;20046;-71
2023/03/24 00:51:41;;;;;;;14.48;6.60;;;;;;;;;;5111319;28;20043;-71
2023/03/24 00:54:09;;;;;;;14.32;6.60;;;;;;;;;;5111781;28;20129;-71
2023/03/24 00:56:39;;;;;;;15.63;6.53;;;;;;;;;;5111470;28;20036;-71
2023/03/24 00:59:05;;;;;;;15.05;6.40;;;;;;;;;;5111744;28;20402;-71
2023/03/24 01:01:33;;;;;;;17.33;6.50;;;;;;;;;;5111107;28;20039;-71
2023/03/24 01:04:01;;;;;;;17.63;6.63;;;;;;;;;;5111367;28;20092;-71
2023/03/24 01:06:27;;;;;;;14.45;6.35;;;;;;;;;;5111417;28;20054;-68
2023/03/24 01:08:53;;;;;;;14.45;6.20;;;;;;;;;;5111294;28;20081;-68
2023/03/24 01:11:24;;;;;;;16.85;6.38;;;;;;;;;;5111265;28;20043;-68
2023/03/24 01:13:52;;;;;;;13.18;5.93;;;;;;;;;;5095174;28;20055;-68
2023/03/24 01:16:18;;;;;;;11.80;5.78;;;;;;;;;;5073853;28;20487;-68
2023/03/24 01:18:44;;;;;;;12.52;6.45;;;;;;;;;;5091011;28;20028;-68
2023/03/24 01:21:11;;;;;;;15.50;6.72;;;;;;;;;;5090459;28;20036;-68
2023/03/24 01:23:38;;;;;;;12.20;6.40;;;;;;;;;;5090836;28;20081;-68
2023/03/24 01:26:06;;;;;;;13.20;6.68;;;;;;;;;;5090769;28;20039;-68
2023/03/24 01:28:32;;;;;;;17.40;6.57;;;;;;;;;;5090919;28;20036;-68
2023/03/24 01:30:58;;;;;;;13.98;6.15;;;;;;;;;;5090830;28;20051;-69
2023/03/24 01:33:25;;;;;;;11.38;6.43;;;;;;;;;;5088352;28;20062;-68
2023/03/24 01:35:51;;;;;;;14.20;6.20;;;;;;;;;;5074190;28;20051;-68
2023/03/24 01:38:17;;;;;;;14.63;5.90;;;;;;;;;;5090833;28;20036;-68
2023/03/24 01:40:44;;;;;;;11.93;6.30;;;;;;;;;;5073853;28;20039;-68
2023/03/24 01:43:21;;;;;;;15.98;7.15;;;;;;;;;;5090059;28;20047;-68
2023/03/24 01:45:50;;;;;;;15.25;7.20;;;;;;;;;;5090679;28;20484;-68
2023/03/24 01:48:20;;;;;;;15.30;8.23;;;;;;;;;;5088123;28;20036;-68
2023/03/24 01:50:50;;;;;;;16.17;6.25;;;;;;;;;;5090801;28;20032;-68
2023/03/24 01:53:17;;;;;;;13.30;5.65;;;;;;;;;;5090535;28;20077;-68
2023/03/24 01:55:45;;;;;;;10.85;6.30;;;;;;;;;;5073753;28;20135;-68
2023/03/24 01:58:11;;;;;;;11.68;5.93;;;;;;;;;;5073574;28;20036;-68
2023/03/24 02:00:38;;;;;;;10.32;5.78;;;;;;;;;;5091941;28;20047;-68
2023/03/24 02:03:11;;;;;;;13.70;7.10;;;;;;;;;;5099698;28;20121;-69
2023/03/24 02:05:38;;;;;;;9.35;5.93;;;;;;;;;;5094266;28;20047;-68
2023/03/24 02:08:08;;;;;;;12.45;6.57;;;;;;;;;;5077660;28;20059;-68
2023/03/24 02:10:35;;;;;;;14.38;6.68;;;;;;;;;;5094097;28;20480;-68
2023/03/24 02:13:03;;;;;;;10.70;6.63;;;;;;;;;;5100880;28;20060;-68
2023/03/24 02:15:31;;;;;;;12.98;6.47;;;;;;;;;;5114795;28;20467;-68
2023/03/24 02:18:12;;;;;;;9.82;6.20;;;;;;;;;;5114422;28;20092;-69
2023/03/24 02:20:41;;;;;;;11.52;6.53;;;;;;;;;;5114160;28;20479;-68
2023/03/24 02:23:16;;;;;;;14.25;6.63;;;;;;;;;;5097442;28;20035;-68
2023/03/24 02:25:42;;;;;;;12.32;6.47;;;;;;;;;;5114104;28;20132;-68
2023/03/24 02:28:11;;;;;;;11.18;6.85;;;;;;;;;;5114354;28;20039;-68
2023/03/24 02:30:41;;;;;;;11.73;6.35;;;;;;;;;;5114288;28;20124;-68
2023/03/24 02:33:13;;;;;;;16.40;7.03;;;;;;;;;;5114124;28;20050;-68
2023/03/24 02:35:54;;;;;;;14.52;6.72;;;;;;;;;;5115418;28;20063;-68
2023/03/24 02:38:39;;;;;;;16.90;6.80;;;;;;;;;;5114435;28;20114;-68
2023/03/24 02:41:16;;;;;;;11.18;7.15;;;;;;;;;;5112679;28;20046;-68
2023/03/24 02:44:00;;;;;;;12.23;7.03;;;;;;;;;;5112182;28;20122;-67
2023/03/24 02:46:29;;;;;;;14.35;7.20;;;;;;;;;;5113922;28;20122;-67
2023/03/24 02:48:59;;;;;;;11.15;6.25;;;;;;;;;;5096918;28;20035;-67
2023/03/24 02:51:49;;;;;;;11.50;5.60;;;11.60;99.90;;;;;;5114256;28;20032;-68
2023/03/24 02:54:23;;;;;;;8.82;4.63;;;;;;;;;;5096811;28;20062;-68
2023/03/24 02:56:59;;;;;;;6.40;4.00;;;;;;;;;;5113729;28;20110;-68
2023/03/24 02:59:36;;;;;;;10.05;3.88;;;;;;;;;;5113965;28;20399;-68
2023/03/24 03:02:07;;;;;;;14.25;4.70;;;;;;;;;;5112325;28;20434;-68
2023/03/24 03:04:36;;;;;;;9.63;4.15;;;;;;;;;;5113478;28;20039;-68
2023/03/24 03:07:08;;;;;;;12.82;4.40;;;;;;;;;;5113870;28;20039;-68
2023/03/24 03:09:36;;;;;;;10.85;3.95;;;;;;;;;;5113421;28;20042;-68
2023/03/24 03:12:04;;;;;;;15.68;3.45;;;;;;;;;;5110265;28;20078;-68
2023/03/24 03:14:34;;;;;;;13.27;3.42;;;;;;;;;;5094291;28;20630;-68
2023/03/24 03:17:13;;;;;;;15.10;3.50;;;;;;;;;;5093012;28;20048;-68
2023/03/24 03:19:57;;;;;;;14.48;4.78;;;;;;;;;;5093229;28;20066;-69
2023/03/24 03:22:25;;;;;;;8.50;3.10;;;;;;;;;;5110001;28;20774;-68
2023/03/24 03:24:53;;;;;;;12.15;3.00;;;;;;;;;;5074039;28;20038;-68
2023/03/24 03:27:25;;;;;;;11.60;3.45;;;;;;;;;;5092919;28;20067;-68
2023/03/24 03:29:53;;;;;;;13.32;2.90;;;;;;;;;;5076084;28;20035;-71
2023/03/24 03:32:27;;;;;;;17.75;2.58;;;;;;;;;;5075824;28;20036;-71
2023/03/24 03:35:00;;;;;;;17.13;3.13;;;;;;;;;;5075947;28;20048;-72
2023/03/24 03:37:32;;;;;;;20.13;3.60;;;;;;;;;;5074213;28;20122;-72
2023/03/24 03:40:00;;;;;;;15.27;2.95;;;;;;;;;;5075836;28;20040;-72
2023/03/24 03:42:26;;;;;;;19.67;3.90;;;;;;;;;;5092310;28;20484;-72
2023/03/24 03:44:52;;;;;;;11.85;3.15;;;;;;;;;;5092724;28;20081;-72
2023/03/24 03:47:20;;;;;;;17.00;3.88;;;;;;;;;;5109503;28;20122;-72
2023/03/24 03:49:46;;;;;;;17.75;3.20;;;;;;;;;;5092356;28;20048;-72
2023/03/24 03:52:13;;;;;;;19.70;3.28;;;;;;;;;;5092619;28;20093;-72
2023/03/24 03:54:39;;;;;;;20.63;3.53;;;;;;;;;;5092388;28;20067;-72
2023/03/24 03:57:06;;;;;;;14.07;3.72;;;;;;;;;;5075631;28;20102;-72
2023/03/24 03:59:36;;;;;;;17.73;2.72;;;;;;;;;;5092188;28;20058;-72
2023/03/24 04:02:47;;;;;;;14.93;3.13;;;10.40;99.90;;;;;;5092224;28;20040;-72
2023/03/24 04:05:27;;;;;;;19.52;3.17;;;;;;;;;;5088982;28;20080;-72
2023/03/24 04:08:11;;;;;;;22.38;3.30;;;;;;;;;;5091206;28;20081;-72
2023/03/24 04:11:14;;;;;;;9.88;2.90;;;10.40;99.90;;;;;;5092145;28;20105;-72
2023/03/24 04:13:44;;;;;;;17.42;3.70;;;;;;;;;;5103882;28;20058;-72
2023/03/24 04:16:21;;;;;;;22.30;4.68;;;;;;;;;;5109647;28;20043;-72
2023/03/24 04:19:01;;;;;;;15.52;4.57;;;;;;;;;;5112226;28;20039;-72
2023/03/24 04:21:27;;;;;;;20.35;3.35;;;;;;;;;;5110725;28;20043;-72
2023/03/24 04:24:05;;;;;;;18.63;3.42;;;;;;;;;;5111843;28;20031;-72
2023/03/24 04:26:40;;;;;;;24.77;3.65;;;;;;;;;;5112333;28;20039;-72
2023/03/24 04:29:10;;;;;;;26.50;3.08;;;;;;;;;;5112162;28;20044;-72
2023/03/24 04:31:42;;;;;;;18.60;3.10;;;;;;;;;;5112169;28;20449;-72
2023/03/24 04:34:09;;;;;;;;;;;;;;;;;;5112484;28;20122;-72
2023/03/24 04:36:41;;;;;;;17.20;3.03;;;;;;;;;;5111801;28;19916;-72
2023/03/24 04:39:16;;;;;;;10.60;3.25;;;;;;;;;;5095341;28;20035;-72
2023/03/24 04:41:44;;;;;;;23.83;3.10;;;;;;;;;;5111594;28;20471;-72
2023/03/24 04:44:11;;;;;;;25.98;3.88;;;;;;;;;;5111518;28;20100;-72
2023/03/24 04:46:38;;;;;;;19.52;3.15;;;;;;;;;;5112025;28;20051;-72
2023/03/24 04:49:05;;;;;;;17.55;3.83;;;;;;;;;;5111926;28;20046;-72
2023/03/24 04:51:31;;;;;;;23.73;3.67;;;;;;;;;;5111450;28;20043;-72
2023/03/24 04:53:57;;;;;;;25.20;3.80;;;;;;;;;;5110152;28;20082;-72
2023/03/24 04:56:29;;;;;;;14.95;3.78;;;;;;;;;;5111507;28;20032;-73
2023/03/24 04:58:55;;;;;;;19.55;3.38;;;;;;;;;;5111947;28;20418;-73
2023/03/24 05:01:22;;;;;;;23.08;5.60;;;;;;;;;;5111569;28;20097;-73
2023/03/24 05:03:48;;;;;;;18.83;3.55;;;;;;;;;;5093797;28;20038;-72
2023/03/24 05:06:15;;;;;;;20.90;3.65;;;;;;;;;;5111677;28;20067;-72
2023/03/24 05:08:41;;;;;;;22.20;3.53;;;;;;;;;;5111446;28;20056;-73
2023/03/24 05:11:07;;;;;;;18.00;4.00;;;;;;;;;;5111098;28;20074;-72
2023/03/24 05:13:34;;;;;;;15.57;3.10;;;;;;;;;;5108608;28;20047;-72
2023/03/24 05:16:00;;;;;;;18.50;3.35;;;;;;;;;;5111333;28;20550;-72
2023/03/24 05:18:26;;;;;;;21.63;3.22;;;;;;;;;;5112564;28;20032;-72
2023/03/24 05:20:53;;;;;;;21.50;3.28;;;;;;;;;;5111000;28;20039;-72
2023/03/24 05:23:19;;;;;;;16.23;3.25;;;;;;;;;;5094039;28;20050;-72
2023/03/24 05:25:46;;;;;;;23.98;3.55;;;;;;;;;;5111074;28;20031;-72
2023/03/24 05:28:12;;;;;;;26.05;3.83;;;;;;;;;;5111176;28;20032;-72
2023/03/24 05:30:38;;;;;;;25.20;3.55;;;;;;;;;;5111258;28;20491;-72
2023/03/24 05:33:04;;;;;;;14.13;3.58;;;;;;;;;;5111008;28;20047;-72
2023/03/24 05:35:30;;;;;;;15.60;3.25;;;;;;;;;;5097441;28;20041;-73
2023/03/24 05:37:56;;;;;;;26.25;4.38;;;;;;;;;;5115951;28;20062;-72
2023/03/24 05:40:22;;;;;;;19.13;3.08;;;;;;;;;;5098307;28;20134;-72
2023/03/24 05:42:49;;;;;;;21.58;2.97;;;;;;;;;;5115231;28;20536;-72
2023/03/24 05:45:16;;;;;;;18.67;3.30;;;;;;;;;;5116401;28;20153;-72
2023/03/24 05:47:42;;;;;;;20.08;4.43;;;;;;;;;;5114742;28;20036;-72
2023/03/24 05:50:08;;;;;;;19.15;2.97;;;;;;;;;;5115227;28;20399;-72
2023/03/24 05:52:35;;;;;;;20.27;3.63;;;;;;;;;;5115284;28;20066;-72
2023/03/24 05:55:01;;;;;;;21.35;3.25;;;;;;;;;;5115188;28;20075;-72
2023/03/24 05:57:31;;;;;;;14.25;3.47;;;;;;;;;;5098268;28;20039;-72
2023/03/24 05:59:57;;;;;;;14.60;3.22;;;;;;;;;;5097890;28;20036;-72
2023/03/24 06:02:23;;;;;;;17.60;3.63;;;;;;;;;;5114900;28;20139;-72
2023/03/24 06:04:50;;;;;;;21.98;3.22;;;;;;;;;;5115290;28;20098;-72
2023/03/24 06:07:17;;;;;;;19.45;2.88;;;;;;;;;;5114838;28;20035;-72
2023/03/24 06:09:45;;;;;;;20.42;3.17;;;;;;;;;;5114714;28;20032;-72
2023/03/24 06:12:12;;;;;;;15.63;3.35;;;;;;;;;;5114626;28;20047;-72
2023/03/24 06:14:39;;;;;;;23.77;3.50;;;;;;;;;;5114679;28;20086;-72
2023/03/24 06:17:07;;;;;;;22.65;3.10;;;;;;;;;;5112144;28;20044;-73
2023/03/24 06:19:33;;;;;;;18.70;3.58;;;;;;;;;;5097882;28;20393;-72
2023/03/24 06:22:01;;;;;;;25.98;3.88;;;;;;;;;;5097670;28;20091;-72
2023/03/24 06:24:28;;;;;;;21.52;3.30;;;;;;;;;;5114568;28;20061;-72
2023/03/24 06:27:00;;;;;;;18.48;3.15;;;;;;;;;;5097688;28;20043;-72
2023/03/24 06:29:27;;;;;;;20.65;3.33;;;;;;;;;;5114650;28;20122;-72
2023/03/24 06:31:53;;;;;;;12.77;2.83;;;;;;;;;;5097250;28;20434;-73
2023/03/24 06:34:21;;;;;;;18.98;3.28;;;;;;;;;;5114405;28;20063;-72
2023/03/24 06:36:47;;;;;;;17.85;3.13;;;;;;;;;;5114319;27;20074;-73
2023/03/24 06:39:13;;;;;;;27.05;4.18;;;;;;;;;;5114703;28;20043;-72
2023/03/24 06:41:39;;;;;;;26.27;3.92;;;;;;;;;;5097549;28;20437;-73
2023/03/24 06:44:05;;;;;;;19.17;3.47;;;;;;;;;;5114392;28;20031;-73
2023/03/24 06:46:31;;;;;;;17.88;3.22;;;;;;;;;;5097445;28;20036;-73
2023/03/24 06:48:57;;;;;;;20.08;3.13;;;;;;;;;;5114006;28;20040;-73
2023/03/24 06:51:23;;;;;;;30.20;4.05;;;;;;;;;;5113940;28;20071;-73
2023/03/24 06:53:49;;;;;;;16.92;3.38;;;;;;;;;;5113870;28;20134;-73
2023/03/24 06:56:18;;;;;;;30.85;3.95;;;;;;;;;;5130887;27;20081;-73
2023/03/24 06:58:44;;;;;;;26.67;3.97;;;;;;;;;;5114328;28;20036;-73
2023/03/24 07:01:10;;;;;;;23.40;3.97;;;;;;;;;;5097027;28;20065;-73
2023/03/24 07:03:37;;;;;;;24.20;4.15;;;;;;;;;;5113626;28;20079;-72
2023/03/24 07:06:04;;;;;;;27.85;5.15;;;;;;;;;;5113345;28;20039;-73
2023/03/24 07:08:31;;;;;;;23.98;3.83;;;;;;;;;;5113737;28;20116;-73
2023/03/24 07:10:59;;;;;;;25.55;3.30;;;;;;;;;;5113844;28;20039;-73
2023/03/24 07:13:25;;;;;;;27.73;4.50;;;;;;;;;;5113503;28;20799;-69
2023/03/24 07:15:51;;;;;;;28.17;4.03;;;;;;;;;;5111171;28;20373;-68
2023/03/24 07:18:20;;;;;;;23.80;3.50;;;;;;;;;;5113552;28;20043;-70
2023/03/24 07:20:47;;;;;;;26.48;3.55;;;;;;;;;;5113659;28;20049;-69
2023/03/24 07:23:13;;;;;;;23.92;3.67;;;;;;;;;;5112843;28;20495;-69
2023/03/24 07:25:40;;;;;;;41.75;4.35;;;;;;;;;;5113255;28;20032;-69
2023/03/24 07:28:07;;;;;;;25.27;3.72;;;;;;;;;;5113352;28;20379;-69
2023/03/24 07:30:34;;;;;;;25.67;4.32;;;;;;;;;;5113485;28;20032;-70
2023/03/24 07:33:01;;;;;;;29.88;3.67;;;;;;;;;;5112931;28;20089;-70
2023/03/24 07:35:28;;;;;;;27.98;5.10;;;;;;;;;;5113071;28;20031;-69
2023/03/24 07:37:57;;;;;;;29.08;3.78;;;;;;;;;;5112644;28;20040;-69
2023/03/24 07:40:23;;;;;;;31.02;5.03;;;;;;;;;;5121852;27;20383;-69
2023/03/24 07:42:50;;;;;;;27.30;3.55;;;;;;;;;;5112177;28;20073;-69
2023/03/24 07:45:16;;;;;;;34.40;4.05;;;;;;;;;;5112807;28;20035;-69
2023/03/24 07:47:43;;;;;;;26.98;4.22;;;;;;;;;;5096826;28;20118;-69
2023/03/24 07:50:10;;;;;;;25.52;4.07;;;;;;;;;;5113848;28;20466;-69
2023/03/24 07:52:40;;;;;;;45.38;7.22;;;;;;;;;;5096778;28;20040;-69
2023/03/24 07:55:10;;;;;;;27.58;3.55;;;;;;;;;;5113613;28;20070;-69
2023/03/24 07:57:37;;;;;;;32.83;5.03;;;;;;;;;;5113257;28;20126;-69
2023/03/24 08:00:14;;;;;;;31.05;3.92;;;;;;;;;;5113790;28;20044;-72
2023/03/24 08:02:40;;;;;;;25.90;3.60;;;;;;;;;;5113520;28;20079;-72
2023/03/24 08:05:07;;;;;;;21.10;4.68;;;;;;;;;;5113692;28;20032;-72
2023/03/24 08:07:33;;;;;;;27.17;3.92;;;;;;;;;;5113680;28;20044;-71
2023/03/24 08:09:59;;;;;;;35.90;4.63;;;;;;;;;;5096560;28;20122;-71
2023/03/24 08:12:25;;;;;;;29.73;3.78;;;;;;;;;;5113497;28;20101;-71
2023/03/24 08:14:52;;;;;;;34.40;5.03;;;;;;;;;;5113092;28;20056;-72
2023/03/24 08:17:18;;;;;;;31.35;4.85;;;;;;;;;;5096714;28;20457;-72
2023/03/24 08:19:44;;;;;;;35.83;4.60;;;;;;;;;;5113215;28;20054;-72
2023/03/24 08:22:10;;;;;;;24.02;3.63;;;;;;;;;;5113157;28;20043;-71
2023/03/24 08:24:36;;;;;;;34.90;5.75;;;;;;;;;;5104673;28;20075;-71
2023/03/24 08:27:05;;;;;;;33.65;4.60;;;;;;;;;;5092731;28;20040;-69
2023/03/24 08:29:33;;;;;;;25.88;4.65;;;;;;;;;;5092800;28;20040;-69
2023/03/24 08:32:00;;;;;;;31.02;5.82;;;;;;;;;;5093091;28;20055;-71
2023/03/24 08:34:26;;;;;;;31.42;4.35;;;;;;;;;;5092799;28;20127;-69
2023/03/24 08:36:52;;;;;;;37.90;4.88;;;;;;;;;;5093101;28;20046;-69
2023/03/24 08:39:19;;;;;;;27.63;5.82;;;;;;;;;;5094773;28;20051;-69
2023/03/24 08:41:45;;;;;;;28.40;5.40;;;;;;;;;;5096085;28;20039;-70
2023/03/24 08:44:11;;;;;;;30.42;4.63;;;;;;;;;;5112428;28;20039;-70
2023/03/24 08:46:39;;;;;;;31.10;4.68;;;;;;;;;;5098254;28;20436;-69
2023/03/24 08:49:05;;;;;;;35.10;3.85;;;;;;;;;;5085164;28;20481;-69
2023/03/24 08:51:32;;;;;;;23.33;3.25;;;;;;;;;;5100442;28;20042;-69
2023/03/24 08:53:58;;;;;;;33.88;4.70;;;;;;;;;;5111165;28;20040;-69
2023/03/24 08:56:24;;;;;;;28.90;6.13;;;;;;;;;;5092262;28;20089;-69
2023/03/24 08:58:52;;;;;;;39.58;5.05;;;;;;;;;;5092512;28;20035;-70
2023/03/24 09:01:19;;;;;;;37.08;4.57;;;;;;;;;;5092519;28;20461;-69
2023/03/24 09:03:45;;;;;;;28.70;3.92;;;;;;;;;;5092141;28;20131;-69
2023/03/24 09:06:12;;;;;;;43.53;5.57;;;;;;;;;;5076620;28;20047;-69
2023/03/24 09:08:38;;;;;;;27.67;4.28;;;;;;;;;;5111603;28;20554;-69
2023/03/24 09:11:04;;;;;;;27.60;4.25;;;;;;;;;;5095915;28;20042;-70
2023/03/24 09:13:31;;;;;;;27.05;4.57;;;;;;;;;;5114409;27;20095;-72
2023/03/24 09:15:58;;;;;;;36.25;5.28;;;;;;;;;;5115863;27;20059;-72
2023/03/24 09:18:24;;;;;;;21.58;3.92;;;;;;;;;;5116019;27;20095;-72
2023/03/24 09:20:51;;;;;;;19.25;3.35;;;;;;;;;;5115819;27;20550;-72
2023/03/24 09:23:17;;;;;;;26.40;3.78;;;;;;;;;;5115738;27;20122;-71
2023/03/24 09:25:43;;;;;;;22.30;4.03;;;;;;;;;;5116033;28;20061;-72
2023/03/24 09:28:10;;;;;;;25.67;3.67;;;;;;;;;;5114461;28;20034;-72
2023/03/24 09:30:36;;;;;;;25.77;4.13;;;;;;;;;;5114824;28;20524;-71
2023/03/24 09:33:02;;;;;;;26.17;3.88;;;;;;;;;;5126150;27;20125;-71
2023/03/24 09:35:28;;;;;;;27.67;3.83;;;;;;;;;;5115401;28;20070;-71
2023/03/24 09:37:55;;;;;;;30.40;4.05;;;;;;;;;;5115004;28;20122;-71
2023/03/24 09:40:22;;;;;;;28.45;4.20;;;;;;;;;;5094374;28;20123;-71
2023/03/24 09:42:52;;;;;;;21.60;3.05;;;;;;;;;;5114774;28;20104;-71
2023/03/24 09:45:20;;;;;;;21.88;3.75;;;;;;;;;;5114974;28;20027;-72
2023/03/24 09:47:49;;;;;;;27.92;3.75;;;;;;;;;;5114406;28;20032;-71
2023/03/24 09:50:34;;;;;;;28.52;3.80;;;;;;;;;;5114403;28;20035;-71
2023/03/24 09:53:20;;;;;;;25.77;3.85;;;;;;;;;;5114879;28;20407;-71
2023/03/24 09:55:48;;;;;;;23.08;3.92;;;;;;;;;;5065820;28;20047;-72
2023/03/24 09:58:14;;;;;;;22.48;4.22;;;;;;;;;;5114637;28;20031;-71
2023/03/24 10:00:40;;;;;;;24.17;3.25;;;;;;;;;;5114094;28;20035;-72
2023/03/24 10:03:19;;;;;;;30.15;4.20;;;;;;;;;;5114531;28;20039;-71
2023/03/24 10:05:48;;;;;;;23.88;4.20;;;;;;;;;;5111704;28;20036;-71
2023/03/24 10:08:25;;;;;;;25.02;3.72;;;;;;;;;;5139978;27;20043;-72
2023/03/24 10:11:03;;;;;;;20.88;4.28;;;;;;;;;;5109319;28;20049;-71
2023/03/24 10:13:37;;;;;;;17.50;3.35;;;;;;;;;;5114215;27;20371;-71
2023/03/24 10:16:15;;;;;;;18.25;3.05;;;;;;;;;;5097259;28;20055;-72
2023/03/24 10:18:42;;;;;;;22.15;4.35;;;;;;;;;;5114640;28;20068;-72
2023/03/24 10:21:19;;;;;;;20.98;3.75;;;;;;;;;;5103834;27;20181;-72
2023/03/24 10:23:49;;;;;;;19.85;3.35;;;;;;;;;;5118258;27;20028;-72
2023/03/24 10:26:15;;;;;;;17.08;3.33;;;;;;;;;;5146557;27;20038;-72
2023/03/24 10:28:41;;;;;;;29.52;4.25;;;;;;;;;;5118481;27;20436;-72
2023/03/24 10:31:13;;;;;;;22.35;3.10;;;;;;;;;;5141638;27;20047;-72
2023/03/24 10:33:41;;;;;;;32.53;4.78;;;;;;;;;;5118590;27;20167;-72
2023/03/24 10:36:10;;;;;;;27.70;4.00;;;;;;;;;;5118546;27;20509;-72
2023/03/24 10:38:36;;;;;;;26.65;5.35;;;;;;;;;;5117863;27;20095;-72
2023/03/24 10:41:03;;;;;;;27.10;4.10;;;;;;;;;;5115180;27;20035;-72
2023/03/24 10:43:31;;;;;;;24.95;3.70;;;;;;;;;;5118805;27;20474;-72
2023/03/24 10:45:58;;;;;;;21.98;3.25;;;;;;;;;;5101006;27;20076;-72
2023/03/24 10:48:39;;;;;;;23.42;3.75;;;;;;;;;;5118146;27;20035;-72
2023/03/24 10:51:06;;;;;;;28.77;3.97;;;;;;;;;;5099897;27;20039;-72
2023/03/24 10:53:32;;;;;;;26.30;3.88;;;;;;;;;;5100611;27;20062;-72
2023/03/24 10:55:59;;;;;;;29.85;3.83;;;;;;;;;;5145367;27;20039;-72
2023/03/24 10:58:25;;;;;;;30.50;5.05;;;;;;;;;;5117661;27;20118;-72
2023/03/24 11:00:51;;;;;;;26.42;3.95;;;;;;;;;;5103027;27;20042;-72
2023/03/24 11:03:22;;;;;;;28.02;4.10;;;;;;;;;;5120428;27;20122;-72
2023/03/24 11:05:48;;;;;;;31.58;4.03;;;;;;;;;;5143439;27;20047;-72
2023/03/24 11:08:17;;;;;;;19.80;3.97;;;;;;;;;;5117375;27;20030;-72
2023/03/24 11:10:44;;;;;;;20.15;3.25;;;;;;;;;;5123411;27;20035;-72
2023/03/24 11:13:17;;;;;;;25.33;4.22;;;;;;;;;;5133933;27;20498;-71
2023/03/24 11:16:03;;;;;;;21.85;3.55;;;;;;;;;;5115241;27;20059;-72
2023/03/24 11:18:29;;;;;;;26.42;4.70;;;;;;;;;;5094125;28;20036;-72
2023/03/24 11:20:59;;;;;;;23.73;3.65;;;;;;;;;;5077224;28;20043;-72
2023/03/24 11:23:30;;;;;;;20.88;3.70;;;;;;;;;;5093784;28;20047;-72
2023/03/24 11:26:16;;;;;;;19.33;3.10;;;13.20;99.90;;;;;;5093850;28;20059;-72
2023/03/24 11:28:47;;;;;;;21.65;3.92;;;;;;;;;;5093941;28;20054;-72
2023/03/24 11:31:23;;;;;;;25.42;3.83;;;;;;;;;;5076145;28;20040;-72
2023/03/24 11:33:55;;;;;;;18.90;3.50;;;;;;;;;;5082644;28;20047;-71
2023/03/24 11:36:33;;;;;;;28.00;4.95;;;;;;;;;;5089107;28;20123;-71
2023/03/24 11:39:01;;;;;;;32.40;3.67;;;;;;;;;;5104370;28;20054;-71
2023/03/24 11:41:27;;;;;;;27.77;3.60;;;;;;;;;;5092426;28;20067;-71
2023/03/24 11:44:18;;;;;;;18.95;3.55;;;13.40;99.90;;;;;;5108481;28;20048;-72
2023/03/24 11:46:46;;;;;;;23.23;3.72;;;;;;;;;;5092651;28;20032;-72
2023/03/24 11:49:15;;;;;;;24.48;3.42;;;;;;;;;;5090479;28;20115;-72
2023/03/24 11:51:42;;;;;;;27.95;3.88;;;;;;;;;;5092549;28;20035;-71
2023/03/24 11:54:13;;;;;;;16.38;3.25;;;;;;;;;;5092642;28;20068;-72
2023/03/24 11:56:42;;;;;;;18.38;3.45;;;;;;;;;;5085026;28;20373;-72
2023/03/24 11:59:30;;;;;;;22.55;3.97;;;;;;;;;;5092362;28;20429;-73
2023/03/24 12:02:22;;;;;;;27.02;3.30;;;;;;;;;;5071856;28;20072;-72
2023/03/24 12:04:56;;;;;;;24.33;3.17;;;;;;;;;;5088379;28;20507;-72
2023/03/24 12:07:40;;;;;;;23.83;3.10;;;;;;;;;;5109612;28;20047;-72
2023/03/24 12:10:35;;;;;;;18.00;2.58;;;13.50;99.90;;;;;;5075077;28;20086;-73
2023/03/24 12:13:12;;;;;;;17.77;3.00;;;;;;;;;;5050768;28;20484;-72
2023/03/24 12:15:38;;;;;;;17.73;3.20;;;;;;;;;;5091554;28;20087;-71
2023/03/24 12:18:23;;;;;;;17.00;3.45;;;;;;;;;;5091726;28;20048;-73
2023/03/24 12:21:09;;;;;;;25.48;4.03;;;13.50;99.90;;;;;;5092734;28;20120;-72
2023/03/24 12:23:39;;;;;;;28.75;4.90;;;;;;;;;;5091856;28;20056;-72
2023/03/24 12:26:05;;;;;;;15.75;3.10;;;;;;;;;;5070072;28;20046;-72
2023/03/24 12:28:51;;;;;;;16.42;2.67;;;;;;;;;;5074426;28;20040;-72
2023/03/24 12:31:36;;;;;;;19.50;3.67;;;;;;;;;;5074913;28;20426;-72
2023/03/24 12:34:30;;;;;;;21.55;2.95;;;13.80;99.90;;;;;;5091697;28;20032;-72
2023/03/24 12:36:56;;;;;;;15.07;3.15;;;;;;;;;;5091092;28;20040;-72
2023/03/24 12:39:31;;;;;;;20.40;3.38;;;;;;;;;;5091758;28;20032;-72
2023/03/24 12:42:11;;;;;;;22.67;2.67;;;;;;;;;;5090776;28;20052;-73
2023/03/24 12:44:46;;;;;;;24.60;2.95;;;;;;;;;;5091232;28;20044;-73
2023/03/24 12:47:16;;;;;;;29.08;4.32;;;;;;;;;;5108155;28;20036;-73
2023/03/24 12:49:51;;;;;;;24.70;3.63;;;;;;;;;;5108423;28;20495;-73
2023/03/24 12:52:36;;;;;;;22.75;3.25;;;;;;;;;;5109215;28;20032;-73
2023/03/24 12:55:24;;;;;;;20.85;3.30;;;;;;;;;;5090472;28;20042;-73
2023/03/24 12:58:02;;;;;;;21.70;2.92;;;;;;;;;;5091528;28;20050;-73
2023/03/24 13:00:29;;;;;;;20.42;3.15;;;;;;;;;;5073546;28;20118;-73
2023/03/24 13:02:58;;;;;;;15.82;4.07;;;;;;;;;;5089914;28;20049;-75
2023/03/24 13:05:30;;;;;;;24.05;3.92;;;;;;;;;;5091448;28;20028;-74
2023/03/24 13:08:01;;;;;;;22.92;3.10;;;;;;;;;;5091461;28;20040;-74
2023/03/24 13:10:28;;;;;;;21.45;3.50;;;;;;;;;;5091894;28;20507;-73
2023/03/24 13:13:00;;;;;;;17.38;3.38;;;;;;;;;;5092056;28;20047;-73
2023/03/24 13:15:39;;;;;;;29.88;3.50;;;;;;;;;;5091982;28;20056;-73
2023/03/24 13:18:13;;;;;;;20.15;2.95;;;;;;;;;;5092007;28;20100;-73
2023/03/24 13:20:41;;;;;;;21.65;2.55;;;;;;;;;;5071774;28;20047;-73
2023/03/24 13:23:23;;;;;;;15.75;2.90;;;;;;;;;;5074852;28;20086;-73
2023/03/24 13:26:07;;;;;;;;;;;14.80;99.90;;;;;;5092426;28;20036;-73
2023/03/24 13:28:43;;;;;;;17.85;2.83;;;;;;;;;;5075157;28;19967;-72
2023/03/24 13:31:11;;;;;;;18.08;3.30;;;;;;;;;;5091743;28;20032;-73
2023/03/24 13:33:38;;;;;;;23.17;4.78;;;;;;;;;;5092135;28;20503;-73
2023/03/24 13:36:19;;;;;;;19.77;2.85;;;;;;;;;;5092263;28;20043;-73
2023/03/24 13:38:56;;;;;;;18.63;3.35;;;;;;;;;;5091880;28;20043;-73
2023/03/24 13:41:25;;;;;;;17.67;4.05;;;;;;;;;;5091758;28;20047;-73
2023/03/24 13:44:02;;;;;;;20.33;3.13;;;;;;;;;;5075038;28;20048;-73
2023/03/24 13:46:28;;;;;;;14.13;2.97;;;;;;;;;;5091803;28;20118;-70
2023/03/24 13:48:56;;;;;;;20.23;3.30;;;;;;;;;;5074810;28;20036;-70
2023/03/24 13:51:29;;;;;;;17.48;2.90;;;;;;;;;;5091644;28;20506;-69
2023/03/24 13:53:58;;;;;;;21.02;3.00;;;;;;;;;;5091285;28;20040;-69
2023/03/24 13:56:37;;;;;;;19.02;2.88;;;;;;;;;;5094758;28;20044;-70
2023/03/24 13:59:09;;;;;;;17.98;2.83;;;;;;;;;;5095727;28;20044;-69
2023/03/24 14:01:39;;;;;;;22.73;3.80;;;;;;;;;;5095623;28;20036;-69
2023/03/24 14:04:24;;;;;;;21.50;3.47;;;;;;;;;;5078602;28;20044;-69
2023/03/24 14:06:51;;;;;;;21.67;3.70;;;;;;;;;;5095494;28;20518;-69
2023/03/24 14:09:20;;;;;;;19.02;3.00;;;;;;;;;;5095340;28;20136;-74
2023/03/24 14:11:55;;;;;;;20.45;3.72;;;;;;;;;;5095463;28;20044;-70
2023/03/24 14:14:23;;;;;;;23.45;3.25;;;;;;;;;;5078498;27;20127;-69
2023/03/24 14:17:02;;;;;;;16.65;3.10;;;;;;;;;;5118165;27;20399;-69
2023/03/24 14:19:38;;;;;;;19.15;2.95;;;;;;;;;;5101354;27;20046;-69
2023/03/24 14:22:04;;;;;;;21.20;3.42;;;;;;;;;;5118950;27;20474;-69
2023/03/24 14:24:31;;;;;;;18.42;3.78;;;;;;;;;;5119369;27;20042;-69
2023/03/24 14:26:58;;;;;;;14.15;2.83;;;;;;;;;;5117772;27;20043;-69
2023/03/24 14:29:33;;;;;;;20.25;2.83;;;;;;;;;;5119292;27;20042;-69
2023/03/24 14:32:01;;;;;;;15.23;2.33;;;;;;;;;;5118923;27;20039;-69
2023/03/24 14:34:29;;;;;;;17.77;2.65;;;;;;;;;;5119191;27;20084;-69
2023/03/24 14:37:05;;;;;;;14.65;3.20;;;;;;;;;;5102231;27;20039;-69
2023/03/24 14:39:31;;;;;;;19.52;3.25;;;;;;;;;;5119092;27;20206;-69
2023/03/24 14:41:57;;;;;;;13.65;2.88;;;;;;;;;;5118725;27;20171;-69
2023/03/24 14:44:52;;;;;;;19.60;2.63;;;;;;;;;;5118672;27;20045;-68
2023/03/24 14:47:19;;;;;;;17.92;3.28;;;;;;;;;;5118643;27;20042;-69